createdAt,value
2022-12-18T00:01:17.796Z,97.30
2022-12-18T00:03:45.341Z,91.85
2022-12-18T00:06:13.153Z,90.95
2022-12-18T00:08:40.004Z,83.50
2022-12-18T00:11:08.316Z,91.28
2022-12-18T00:13:36.189Z,87.25
2022-12-18T00:16:12.245Z,80.25
2022-12-18T00:18:40.391Z,88.80
2022-12-18T00:21:11.148Z,79.22
2022-12-18T00:23:39.462Z,85.63
2022-12-18T00:26:11.039Z,83.70
2022-12-18T00:28:37.917Z,79.40
2022-12-18T00:31:06.931Z,62.25
2022-12-18T00:33:34.383Z,62.90
2022-12-18T00:36:32.806Z,63.17
2022-12-18T00:39:01.646Z,62.95
2022-12-18T00:41:47.917Z,62.63
2022-12-18T00:44:16.837Z,56.05
2022-12-18T00:46:44.898Z,47.80
2022-12-18T00:49:13.369Z,53.60
2022-12-18T00:51:40.306Z,48.28
2022-12-18T00:54:07.377Z,43.80
2022-12-18T00:56:39.385Z,50.92
2022-12-18T00:59:12.602Z,55.95
2022-12-18T01:01:39.767Z,55.10
2022-12-18T01:04:06.917Z,50.60
2022-12-18T01:06:33.934Z,56.97
2022-12-18T01:09:00.747Z,46.10
2022-12-18T01:11:27.665Z,46.20
2022-12-18T01:13:55.734Z,35.95
2022-12-18T01:16:23.373Z,47.13
2022-12-18T01:18:54.720Z,48.25
2022-12-18T01:21:22.833Z,54.60
2022-12-18T01:23:54.373Z,59.55
2022-12-18T01:28:48.395Z,62.30
2022-12-18T01:31:17.281Z,59.83
2022-12-18T01:33:45.014Z,64.93
2022-12-18T01:36:40.029Z,56.88
2022-12-18T01:39:13.387Z,62.60
2022-12-18T01:41:59.181Z,61.05
2022-12-18T01:44:57.064Z,63.60
2022-12-18T01:47:42.813Z,55.45
2022-12-18T01:50:39.368Z,59.78
2022-12-18T01:53:06.280Z,60.90
2022-12-18T01:55:39.459Z,62.17
2022-12-18T01:58:06.529Z,60.97
2022-12-18T02:00:33.426Z,68.10
2022-12-18T02:03:00.339Z,58.60
2022-12-18T02:05:54.375Z,59.58
2022-12-18T02:08:24.007Z,63.00
2022-12-18T02:11:02.596Z,56.55
2022-12-18T02:13:54.177Z,53.75
2022-12-18T02:16:51.924Z,48.33
2022-12-18T02:19:28.359Z,45.30
2022-12-18T02:22:27.440Z,51.63
2022-12-18T02:25:14.801Z,50.72
2022-12-18T02:27:45.159Z,41.38
2022-12-18T02:30:12.507Z,39.03
2022-12-18T02:32:43.288Z,47.67
2022-12-18T02:35:17.658Z,47.15
2022-12-18T02:37:47.898Z,41.05
2022-12-18T02:40:16.691Z,47.53
2022-12-18T02:42:43.644Z,41.45
2022-12-18T02:45:11.158Z,42.80
2022-12-18T02:47:41.204Z,39.05
2022-12-18T02:50:37.390Z,39.35
2022-12-18T02:53:19.737Z,36.13
2022-12-18T02:56:06.931Z,40.33
2022-12-18T02:58:54.674Z,37.42
2022-12-18T03:01:28.293Z,35.38
2022-12-18T03:04:06.755Z,38.63
2022-12-18T03:06:41.415Z,36.05
2022-12-18T03:09:13.304Z,39.42
2022-12-18T03:12:02.520Z,35.75
2022-12-18T03:14:33.094Z,31.85
2022-12-18T03:17:04.923Z,34.60
2022-12-18T03:19:34.231Z,33.00
2022-12-18T03:22:04.578Z,39.58
2022-12-18T03:24:32.804Z,37.38
2022-12-18T03:27:03.382Z,38.58
2022-12-18T03:29:41.887Z,27.40
2022-12-18T03:32:25.758Z,38.92
2022-12-18T03:34:54.988Z,38.35
2022-12-18T03:37:21.935Z,37.45
2022-12-18T03:39:48.802Z,27.92
2022-12-18T03:42:38.429Z,30.95
2022-12-18T03:45:10.974Z,35.15
2022-12-18T03:47:56.238Z,32.92
2022-12-18T03:50:37.647Z,23.10
2022-12-18T03:53:13.634Z,23.70
2022-12-18T03:55:41.746Z,24.63
2022-12-18T03:58:09.936Z,24.45
2022-12-18T04:00:37.389Z,22.90
2022-12-18T04:03:06.487Z,25.23
2022-12-18T04:05:34.810Z,28.38
2022-12-18T04:08:02.524Z,27.65
2022-12-18T04:10:29.507Z,25.95
2022-12-18T04:12:59.756Z,23.33
2022-12-18T04:15:26.787Z,24.55
2022-12-18T04:17:53.835Z,20.52
2022-12-18T04:20:20.741Z,21.13
2022-12-18T04:22:47.897Z,26.75
2022-12-18T04:25:15.269Z,22.30
2022-12-18T04:27:42.163Z,25.05
2022-12-18T04:30:09.961Z,23.38
2022-12-18T04:32:37.286Z,26.13
2022-12-18T04:35:05.423Z,22.92
2022-12-18T04:37:32.430Z,24.27
2022-12-18T04:39:59.360Z,23.80
2022-12-18T04:42:26.209Z,25.52
2022-12-18T04:44:53.109Z,27.77
2022-12-18T04:47:19.980Z,25.60
2022-12-18T04:49:46.889Z,26.33
2022-12-18T04:52:13.863Z,25.27
2022-12-18T04:54:40.820Z,21.90
2022-12-18T04:57:07.822Z,29.45
2022-12-18T04:59:34.735Z,26.27
2022-12-18T05:02:01.910Z,24.90
2022-12-18T05:04:28.901Z,27.70
2022-12-18T05:06:55.926Z,29.73
2022-12-18T05:09:24.297Z,23.00
2022-12-18T05:11:51.192Z,28.75
2022-12-18T05:14:18.116Z,26.67
2022-12-18T05:16:45.044Z,25.73
2022-12-18T05:19:12.788Z,23.17
2022-12-18T05:21:40.089Z,33.38
2022-12-18T05:24:07.372Z,23.08
2022-12-18T05:26:36.220Z,28.45
2022-12-18T05:29:03.268Z,26.80
2022-12-18T05:31:34.587Z,25.63
2022-12-18T05:34:04.452Z,27.30
2022-12-18T05:36:31.348Z,24.90
2022-12-18T05:38:58.261Z,29.00
2022-12-18T05:41:25.177Z,25.08
2022-12-18T05:43:52.023Z,28.90
2022-12-18T05:46:19.211Z,25.60
2022-12-18T05:48:46.464Z,29.27
2022-12-18T05:51:16.890Z,25.50
2022-12-18T05:53:44.482Z,30.38
2022-12-18T05:56:19.784Z,29.73
2022-12-18T05:58:47.379Z,26.25
2022-12-18T06:01:23.986Z,26.50
2022-12-18T06:03:51.016Z,28.15
2022-12-18T06:06:23.697Z,28.52
2022-12-18T06:08:51.637Z,28.35
2022-12-18T06:11:21.266Z,29.58
2022-12-18T06:13:56.165Z,23.23
2022-12-18T06:16:25.109Z,25.27
2022-12-18T06:18:52.114Z,27.55
2022-12-18T06:21:19.067Z,23.73
2022-12-18T06:23:45.963Z,22.88
2022-12-18T06:26:13.898Z,22.15
2022-12-18T06:28:41.153Z,27.98
2022-12-18T06:31:09.895Z,23.70
2022-12-18T06:33:37.301Z,25.58
2022-12-18T06:36:11.385Z,27.33
2022-12-18T06:38:42.548Z,26.75
2022-12-18T06:41:11.423Z,23.65
2022-12-18T06:43:39.033Z,24.30
2022-12-18T06:46:06.991Z,26.73
2022-12-18T06:48:34.340Z,27.17
2022-12-18T06:51:01.831Z,27.08
2022-12-18T06:53:28.672Z,21.00
2022-12-18T06:56:10.325Z,28.40
2022-12-18T06:58:38.071Z,23.23
2022-12-18T07:01:07.290Z,28.95
2022-12-18T07:03:34.347Z,23.58
2022-12-18T07:06:01.145Z,27.70
2022-12-18T07:08:29.482Z,26.20
2022-12-18T07:10:56.620Z,24.20
2022-12-18T07:13:23.810Z,24.33
2022-12-18T07:15:50.734Z,24.88
2022-12-18T07:18:17.591Z,28.30
2022-12-18T07:20:45.235Z,27.27
2022-12-18T07:23:12.984Z,23.45
2022-12-18T07:25:40.768Z,23.88
2022-12-18T07:28:09.603Z,26.75
2022-12-18T07:30:39.500Z,25.05
2022-12-18T07:33:06.358Z,24.05
2022-12-18T07:35:34.594Z,26.90
2022-12-18T07:38:01.672Z,27.55
2022-12-18T07:40:31.306Z,30.30
2022-12-18T07:42:58.244Z,27.05
2022-12-18T07:45:25.245Z,31.08
2022-12-18T07:47:52.250Z,29.35
2022-12-18T07:50:19.174Z,29.30
2022-12-18T07:52:45.981Z,32.47
2022-12-18T07:55:13.009Z,32.35
2022-12-18T07:57:52.549Z,33.85
2022-12-18T08:00:21.439Z,37.03
2022-12-18T08:02:48.557Z,186.27
2022-12-18T08:05:15.691Z,342.10
2022-12-18T08:07:42.591Z,284.25
2022-12-18T08:10:09.859Z,263.33
2022-12-18T08:12:36.723Z,178.77
2022-12-18T08:15:03.781Z,121.10
2022-12-18T08:17:31.522Z,91.78
2022-12-18T08:19:58.433Z,76.88
2022-12-18T08:22:25.526Z,67.70
2022-12-18T08:24:52.365Z,74.07
2022-12-18T08:27:34.633Z,72.32
2022-12-18T08:30:01.659Z,86.65
2022-12-18T08:32:29.141Z,94.30
2022-12-18T08:34:56.061Z,80.47
2022-12-18T08:37:23.069Z,84.68
2022-12-18T08:39:49.902Z,73.70
2022-12-18T08:42:35.365Z,70.40
2022-12-18T08:45:02.981Z,54.85
2022-12-18T08:47:30.018Z,53.15
2022-12-18T08:49:56.979Z,56.30
2022-12-18T08:52:23.869Z,54.60
2022-12-18T08:54:50.913Z,46.35
2022-12-18T08:57:17.769Z,52.22
2022-12-18T08:59:44.632Z,43.17
2022-12-18T09:02:12.816Z,41.20
2022-12-18T09:04:41.717Z,36.30
2022-12-18T09:07:09.019Z,32.65
2022-12-18T09:09:36.734Z,36.70
2022-12-18T09:12:03.783Z,34.13
2022-12-18T09:14:30.792Z,33.33
2022-12-18T09:16:57.739Z,34.70
2022-12-18T09:19:24.641Z,34.67
2022-12-18T09:21:51.516Z,26.73
2022-12-18T09:24:18.467Z,67.18
2022-12-18T09:26:47.331Z,27.08
2022-12-18T09:29:16.205Z,29.80
2022-12-18T09:31:43.756Z,31.33
2022-12-18T09:34:10.735Z,32.90
2022-12-18T09:36:37.684Z,30.02
2022-12-18T09:39:08.053Z,27.88
2022-12-18T09:41:52.184Z,33.85
2022-12-18T09:44:28.519Z,33.78
2022-12-18T09:47:20.728Z,30.23
2022-12-18T09:49:51.855Z,31.00
2022-12-18T09:52:24.804Z,33.20
2022-12-18T09:54:58.939Z,32.17
2022-12-18T09:57:26.925Z,30.20
2022-12-18T10:00:22.494Z,30.17
2022-12-18T10:02:53.359Z,28.65
2022-12-18T10:05:59.615Z,27.63
2022-12-18T10:08:47.292Z,35.47
2022-12-18T10:11:35.809Z,30.52
2022-12-18T10:14:14.430Z,35.85
2022-12-18T10:17:06.071Z,41.83
2022-12-18T10:19:50.508Z,40.15
2022-12-18T10:22:25.922Z,35.67
2022-12-18T10:25:19.802Z,35.65
2022-12-18T10:27:47.452Z,37.58
2022-12-18T10:30:16.905Z,35.53
2022-12-18T10:32:43.929Z,34.63
2022-12-18T10:35:20.141Z,31.95
2022-12-18T10:38:11.682Z,35.67
2022-12-18T10:40:58.483Z,33.03
2022-12-18T10:43:31.221Z,35.50
2022-12-18T10:46:09.193Z,37.65
2022-12-18T10:48:48.479Z,36.60
2022-12-18T10:51:27.809Z,39.28
2022-12-18T10:54:02.657Z,33.80
2022-12-18T10:56:32.607Z,41.40
2022-12-18T10:59:05.901Z,40.40
2022-12-18T11:01:58.490Z,36.35
2022-12-18T11:04:33.523Z,32.90
2022-12-18T11:07:04.932Z,35.97
2022-12-18T11:09:40.858Z,32.50
2022-12-18T11:12:19.412Z,32.67
2022-12-18T11:14:50.507Z,37.42
2022-12-18T11:17:26.108Z,33.40
2022-12-18T11:20:01.998Z,32.13
2022-12-18T11:22:34.362Z,36.00
2022-12-18T11:25:35.754Z,35.25
2022-12-18T11:30:34.304Z,37.97
2022-12-18T11:33:22.806Z,38.90
2022-12-18T11:36:00.142Z,32.45
2022-12-18T11:38:37.571Z,33.72
2022-12-18T11:41:10.593Z,30.75
2022-12-18T11:43:45.211Z,35.05
2022-12-18T11:46:19.629Z,31.75
2022-12-18T11:48:46.943Z,35.30
2022-12-18T11:51:27.908Z,31.10
2022-12-18T11:53:55.252Z,29.42
2022-12-18T11:56:36.603Z,34.72
2022-12-18T11:59:17.627Z,36.67
2022-12-18T12:02:15.857Z,29.60
2022-12-18T12:05:00.078Z,32.13
2022-12-18T12:07:29.894Z,35.30
2022-12-18T12:09:59.556Z,31.85
2022-12-18T12:12:51.233Z,37.78
2022-12-18T12:15:29.835Z,31.42
2022-12-18T12:17:59.436Z,37.65
2022-12-18T12:20:55.201Z,33.10
2022-12-18T12:23:27.356Z,38.53
2022-12-18T12:26:11.050Z,38.20
2022-12-18T12:29:25.887Z,34.08
2022-12-18T12:32:14.633Z,34.05
2022-12-18T12:35:00.993Z,38.50
2022-12-18T12:37:55.664Z,35.22
2022-12-18T12:40:51.396Z,40.58
2022-12-18T12:46:04.745Z,60.28
2022-12-18T12:48:54.098Z,69.40
2022-12-18T12:51:35.416Z,48.80
2022-12-18T12:56:50.817Z,39.55
2022-12-18T12:59:25.969Z,40.13
2022-12-18T13:02:34.201Z,38.45
2022-12-18T13:05:26.176Z,32.15
2022-12-18T13:07:53.641Z,35.15
2022-12-18T13:10:32.308Z,28.60
2022-12-18T13:13:16.557Z,39.05
2022-12-18T13:16:08.217Z,27.80
2022-12-18T13:18:36.022Z,27.05
2022-12-18T13:21:12.721Z,33.67
2022-12-18T13:23:40.259Z,29.80
2022-12-18T13:26:08.688Z,32.05
2022-12-18T13:28:47.815Z,32.92
2022-12-18T13:31:42.883Z,32.90
2022-12-18T13:34:29.569Z,33.88
2022-12-18T13:37:18.297Z,36.53
2022-12-18T13:39:45.261Z,33.20
2022-12-18T13:42:32.828Z,33.17
2022-12-18T13:44:59.888Z,35.03
2022-12-18T13:47:29.667Z,33.88
2022-12-18T13:49:58.103Z,30.85
2022-12-18T13:52:38.607Z,28.98
2022-12-18T13:55:15.759Z,34.47
2022-12-18T13:57:42.936Z,29.00
2022-12-18T14:00:29.676Z,33.28
2022-12-18T14:02:58.418Z,32.47
2022-12-18T14:05:47.039Z,29.98
2022-12-18T14:08:19.104Z,28.55
2022-12-18T14:10:49.927Z,31.85
2022-12-18T14:13:31.052Z,28.00
2022-12-18T14:16:02.561Z,33.42
2022-12-18T14:18:44.983Z,28.05
2022-12-18T14:21:28.922Z,32.15
2022-12-18T14:24:06.960Z,34.90
2022-12-18T14:26:34.509Z,31.95
2022-12-18T14:29:19.482Z,26.65
2022-12-18T14:31:47.111Z,39.58
2022-12-18T14:34:17.937Z,32.65
2022-12-18T14:36:55.047Z,29.65
2022-12-18T14:39:21.901Z,34.47
2022-12-18T14:41:53.676Z,29.33
2022-12-18T14:44:22.379Z,28.58
2022-12-18T14:46:51.595Z,29.00
2022-12-18T14:49:24.600Z,29.90
2022-12-18T14:51:57.705Z,28.08
2022-12-18T14:54:26.157Z,32.28
2022-12-18T14:57:14.358Z,31.73
2022-12-18T14:59:41.257Z,51.95
2022-12-18T15:02:20.034Z,38.45
2022-12-18T15:04:47.375Z,37.10
2022-12-18T15:07:22.492Z,35.80
2022-12-18T15:10:08.335Z,30.02
2022-12-18T15:13:00.874Z,32.25
2022-12-18T15:15:37.164Z,25.00
2022-12-18T15:18:11.335Z,27.85
2022-12-18T15:20:57.949Z,31.17
2022-12-18T15:23:39.368Z,34.70
2022-12-18T15:28:46.008Z,33.95
2022-12-18T15:31:13.219Z,40.80
2022-12-18T15:33:43.898Z,33.33
2022-12-18T15:36:18.545Z,28.00
2022-12-18T15:38:56.080Z,37.22
2022-12-18T15:41:35.803Z,34.97
2022-12-18T15:44:04.265Z,34.45
2022-12-18T15:46:32.196Z,36.97
2022-12-18T15:49:02.567Z,39.55
2022-12-18T15:51:35.549Z,37.22
2022-12-18T15:54:04.955Z,30.83
2022-12-18T15:56:50.622Z,30.42
2022-12-18T15:59:20.322Z,34.67
2022-12-18T16:01:49.766Z,26.42
2022-12-18T16:04:21.027Z,33.28
2022-12-18T16:07:13.743Z,30.50
2022-12-18T16:09:36.497Z,26.52
2022-12-18T16:12:03.538Z,49.88
2022-12-18T16:14:31.408Z,34.60
2022-12-18T16:16:59.428Z,31.42
2022-12-18T16:19:27.789Z,32.92
2022-12-18T16:21:57.081Z,34.60
2022-12-18T16:24:26.417Z,30.92
2022-12-18T16:26:54.405Z,45.65
2022-12-18T16:29:25.779Z,42.25
2022-12-18T16:31:53.125Z,32.35
2022-12-18T16:34:29.166Z,36.60
2022-12-18T16:37:04.668Z,33.15
2022-12-18T16:39:34.118Z,30.45
2022-12-18T16:42:03.888Z,27.75
2022-12-18T16:44:34.067Z,33.70
2022-12-18T16:47:03.059Z,27.55
2022-12-18T16:49:30.814Z,24.67
2022-12-18T16:51:58.109Z,24.73
2022-12-18T16:54:25.184Z,27.25
2022-12-18T16:56:55.651Z,31.88
2022-12-18T16:59:22.674Z,27.35
2022-12-18T17:01:49.765Z,22.15
2022-12-18T17:04:17.419Z,20.77
2022-12-18T17:06:45.953Z,24.98
2022-12-18T17:09:16.098Z,26.98
2022-12-18T17:11:43.454Z,25.02
2022-12-18T17:14:14.565Z,27.20
2022-12-18T17:16:41.530Z,23.38
2022-12-18T17:19:12.214Z,23.55
2022-12-18T17:21:44.959Z,23.85
2022-12-18T17:24:12.288Z,19.30
2022-12-18T17:26:39.509Z,22.55
2022-12-18T17:29:06.661Z,24.23
2022-12-18T17:31:34.367Z,25.55
2022-12-18T17:34:04.507Z,20.80
2022-12-18T17:36:32.451Z,22.85
2022-12-18T17:39:02.804Z,24.13
2022-12-18T17:41:30.612Z,28.52
2022-12-18T17:44:00.082Z,26.83
2022-12-18T17:46:28.659Z,18.77
2022-12-18T17:48:56.642Z,26.13
2022-12-18T17:51:23.932Z,19.80
2022-12-18T17:53:51.142Z,20.02
2022-12-18T17:56:19.995Z,21.40
2022-12-18T17:58:48.121Z,19.25
2022-12-18T18:01:18.012Z,20.13
2022-12-18T18:03:47.361Z,24.83
2022-12-18T18:06:17.343Z,22.25
2022-12-18T18:08:44.419Z,23.10
2022-12-18T18:11:32.344Z,26.05
2022-12-18T18:14:03.025Z,25.75
2022-12-18T18:16:39.218Z,36.67
2022-12-18T18:19:12.212Z,28.35
2022-12-18T18:21:41.764Z,29.10
2022-12-18T18:24:10.269Z,25.83
2022-12-18T18:26:38.478Z,19.52
2022-12-18T18:29:07.544Z,22.05
2022-12-18T18:31:36.892Z,23.55
2022-12-18T18:34:08.910Z,23.52
2022-12-18T18:36:35.710Z,20.85
2022-12-18T18:39:03.114Z,22.15
2022-12-18T18:41:30.698Z,28.10
2022-12-18T18:43:58.269Z,24.30
2022-12-18T18:46:26.040Z,23.02
2022-12-18T18:48:53.401Z,18.27
2022-12-18T18:51:21.569Z,18.10
2022-12-18T18:53:50.453Z,22.02
2022-12-18T18:56:45.345Z,20.88
2022-12-18T18:59:06.652Z,18.10
2022-12-18T19:01:33.629Z,22.02
2022-12-18T19:04:01.197Z,20.33
2022-12-18T19:06:28.601Z,18.08
2022-12-18T19:08:57.752Z,17.23
2022-12-18T19:11:44.506Z,13.68
2022-12-18T19:14:13.538Z,18.33
2022-12-18T19:16:41.014Z,21.42
2022-12-18T19:19:08.300Z,16.48
2022-12-18T19:21:37.361Z,18.67
2022-12-18T19:24:04.758Z,15.98
2022-12-18T19:26:31.625Z,24.10
2022-12-18T19:29:09.347Z,19.40
2022-12-18T19:31:37.318Z,17.13
2022-12-18T19:34:07.002Z,20.15
2022-12-18T19:36:36.232Z,19.92
2022-12-18T19:39:09.762Z,14.57
2022-12-18T19:41:36.672Z,16.42
2022-12-18T19:44:07.740Z,18.23
2022-12-18T19:46:36.224Z,19.23
2022-12-18T19:49:07.528Z,15.18
2022-12-18T19:51:34.563Z,16.83
2022-12-18T19:54:02.237Z,19.90
2022-12-18T19:56:32.385Z,19.95
2022-12-18T19:58:59.845Z,16.45
2022-12-18T20:01:28.532Z,21.58
2022-12-18T20:03:57.575Z,18.33
2022-12-18T20:06:27.891Z,15.63
2022-12-18T20:09:00.267Z,14.55
2022-12-18T20:11:28.768Z,13.55
2022-12-18T20:13:55.785Z,18.42
2022-12-18T20:16:23.735Z,13.73
2022-12-18T20:18:50.848Z,13.32
2022-12-18T20:21:19.069Z,12.88
2022-12-18T20:23:46.379Z,15.77
2022-12-18T20:26:13.668Z,16.25
2022-12-18T20:28:40.829Z,15.75
2022-12-18T20:31:10.410Z,20.42
2022-12-18T20:33:41.310Z,20.58
2022-12-18T20:36:12.804Z,22.42
2022-12-18T20:38:39.812Z,16.73
2022-12-18T20:41:11.980Z,19.58
2022-12-18T20:43:39.907Z,21.48
2022-12-18T20:46:10.574Z,23.42
2022-12-18T20:48:37.574Z,22.52
2022-12-18T20:51:19.313Z,27.48
2022-12-18T20:56:21.616Z,26.75
2022-12-18T20:58:49.574Z,22.17
2022-12-18T21:01:19.956Z,15.10
2022-12-18T21:03:47.975Z,16.05
2022-12-18T21:06:17.138Z,15.20
2022-12-18T21:08:44.822Z,16.98
2022-12-18T21:11:39.339Z,12.65
2022-12-18T21:14:15.536Z,11.82
2022-12-18T21:16:43.991Z,9.05
2022-12-18T21:19:17.754Z,14.18
2022-12-18T21:21:45.926Z,18.38
2022-12-18T21:24:13.147Z,12.55
2022-12-18T21:26:45.783Z,15.23
2022-12-18T21:29:20.086Z,12.85
2022-12-18T21:31:47.534Z,11.35
2022-12-18T21:34:26.463Z,11.85
2022-12-18T21:36:54.773Z,18.40
2022-12-18T21:39:22.575Z,11.82
2022-12-18T21:42:09.084Z,16.48
2022-12-18T21:44:38.471Z,12.10
2022-12-18T21:47:17.705Z,15.82
2022-12-18T21:49:53.335Z,14.00
2022-12-18T21:52:31.757Z,12.82
2022-12-18T21:55:06.650Z,16.67
2022-12-18T21:57:35.896Z,13.50
2022-12-18T22:00:03.144Z,16.83
2022-12-18T22:02:30.277Z,19.98
2022-12-18T22:04:57.169Z,15.20
2022-12-18T22:07:24.452Z,18.05
2022-12-18T22:09:51.271Z,11.60
2022-12-18T22:12:35.516Z,11.50
2022-12-18T22:15:05.320Z,11.93
2022-12-18T22:17:32.200Z,11.85
2022-12-18T22:19:59.132Z,14.50
2022-12-18T22:22:26.089Z,12.82
2022-12-18T22:24:52.951Z,9.60
2022-12-18T22:27:19.841Z,12.35
2022-12-18T22:30:04.783Z,13.70
2022-12-18T22:32:33.446Z,10.63
2022-12-18T22:35:06.260Z,16.42
2022-12-18T22:37:35.123Z,10.02
2022-12-18T22:40:02.969Z,12.82
2022-12-18T22:42:30.693Z,10.77
2022-12-18T22:44:57.506Z,12.38
2022-12-18T22:47:29.377Z,10.52
2022-12-18T22:49:57.200Z,13.60
2022-12-18T22:52:24.705Z,10.52
2022-12-18T22:54:53.641Z,14.68
2022-12-18T22:57:21.853Z,13.77
2022-12-18T22:59:49.510Z,11.98
2022-12-18T23:02:17.844Z,12.55
2022-12-18T23:04:45.178Z,13.43
2022-12-18T23:07:12.557Z,15.38
2022-12-18T23:09:40.128Z,10.98
2022-12-18T23:12:07.638Z,14.23
2022-12-18T23:14:34.570Z,15.73
2022-12-18T23:17:01.417Z,13.50
2022-12-18T23:19:29.119Z,12.98
2022-12-18T23:21:58.712Z,16.42
2022-12-18T23:24:26.228Z,14.40
2022-12-18T23:26:53.125Z,20.27
2022-12-18T23:29:20.128Z,17.40
2022-12-18T23:31:47.463Z,18.13
2022-12-18T23:34:15.375Z,15.38
2022-12-18T23:36:45.301Z,16.15
2022-12-18T23:39:28.396Z,13.67
2022-12-18T23:41:56.597Z,18.00
2022-12-18T23:44:23.532Z,17.70
2022-12-18T23:46:50.672Z,14.02
2022-12-18T23:49:17.565Z,16.35
2022-12-18T23:51:44.426Z,18.95
2022-12-18T23:54:11.312Z,15.82
2022-12-18T23:56:38.226Z,16.25
2022-12-18T23:59:05.115Z,17.15
